createdAt,value
2023-01-28T00:01:15.591Z,77.78
2023-01-28T00:03:47.837Z,77.76
2023-01-28T00:06:18.988Z,76.73
2023-01-28T00:08:48.784Z,77.46
2023-01-28T00:11:18.408Z,76.50
2023-01-28T00:13:48.080Z,76.72
2023-01-28T00:16:17.690Z,78.10
2023-01-28T00:18:49.921Z,78.51
2023-01-28T00:21:19.565Z,78.51
2023-01-28T00:23:54.664Z,77.62
2023-01-28T00:26:25.801Z,78.17
2023-01-28T00:28:55.602Z,77.72
2023-01-28T00:31:27.377Z,77.52
2023-01-28T00:34:00.364Z,78.11
2023-01-28T00:36:30.362Z,78.26
2023-01-28T00:39:02.059Z,77.45
2023-01-28T00:41:32.857Z,77.26
2023-01-28T00:44:02.545Z,76.75
2023-01-28T00:46:32.545Z,76.36
2023-01-28T00:49:04.787Z,75.74
2023-01-28T00:51:34.426Z,74.97
2023-01-28T00:54:04.053Z,75.78
2023-01-28T00:56:34.056Z,75.96
2023-01-28T00:59:03.663Z,75.92
2023-01-28T01:01:33.544Z,76.45
2023-01-28T01:04:05.892Z,76.75
2023-01-28T01:06:37.409Z,76.58
2023-01-28T01:09:09.555Z,76.75
2023-01-28T01:11:39.629Z,76.82
2023-01-28T01:14:09.269Z,77.41
2023-01-28T01:16:38.952Z,77.19
2023-01-28T01:19:11.769Z,77.75
2023-01-28T01:21:41.501Z,77.51
2023-01-28T01:24:11.407Z,76.71
2023-01-28T01:26:41.084Z,76.97
2023-01-28T01:29:10.831Z,77.17
2023-01-28T01:31:40.596Z,76.99
2023-01-28T01:34:12.936Z,76.47
2023-01-28T01:36:44.154Z,76.42
2023-01-28T01:39:15.112Z,76.52
2023-01-28T01:41:45.941Z,75.77
2023-01-28T01:44:45.699Z,75.69
2023-01-28T01:47:16.767Z,76.83
2023-01-28T01:49:49.267Z,76.60
2023-01-28T01:52:23.360Z,76.68
2023-01-28T01:54:58.278Z,76.64
2023-01-28T01:57:31.655Z,76.35
2023-01-28T02:00:06.363Z,76.68
2023-01-28T02:02:48.646Z,76.52
2023-01-28T02:05:23.360Z,75.82
2023-01-28T02:07:55.199Z,76.44
2023-01-28T02:10:26.368Z,76.39
2023-01-28T02:13:00.643Z,75.82
2023-01-28T02:15:30.840Z,76.19
2023-01-28T02:18:00.654Z,76.61
2023-01-28T02:20:46.527Z,76.30
2023-01-28T02:23:31.495Z,76.92
2023-01-28T02:26:28.073Z,76.70
2023-01-28T02:29:08.310Z,77.55
2023-01-28T02:31:45.180Z,77.37
2023-01-28T02:34:26.837Z,77.27
2023-01-28T02:37:00.691Z,77.23
2023-01-28T02:39:37.400Z,76.97
2023-01-28T02:42:16.458Z,76.60
2023-01-28T02:44:48.758Z,76.40
2023-01-28T02:47:31.262Z,76.57
2023-01-28T02:50:05.102Z,77.13
2023-01-28T02:53:05.604Z,76.91
2023-01-28T02:55:42.112Z,77.03
2023-01-28T02:58:21.003Z,75.99
2023-01-28T03:01:04.666Z,76.38
2023-01-28T03:03:41.119Z,76.78
2023-01-28T03:06:15.239Z,76.93
2023-01-28T03:09:02.874Z,77.01
2023-01-28T03:11:49.730Z,76.67
2023-01-28T03:14:34.594Z,77.08
2023-01-28T03:17:23.065Z,77.48
2023-01-28T03:20:06.096Z,77.12
2023-01-28T03:22:52.694Z,77.01
2023-01-28T03:25:38.151Z,76.81
2023-01-28T03:28:25.832Z,76.74
2023-01-28T03:31:15.910Z,76.68
2023-01-28T03:34:09.869Z,76.51
2023-01-28T03:36:53.456Z,76.42
2023-01-28T03:39:41.426Z,76.59
2023-01-28T03:42:14.875Z,76.84
2023-01-28T03:44:55.336Z,77.04
2023-01-28T03:47:27.141Z,76.73
2023-01-28T03:50:01.027Z,76.81
2023-01-28T03:52:35.432Z,77.35
2023-01-28T03:55:20.727Z,78.00
2023-01-28T03:57:50.467Z,78.33
2023-01-28T04:00:22.063Z,77.59
2023-01-28T04:02:51.854Z,77.89
2023-01-28T04:05:26.023Z,77.65
2023-01-28T04:07:57.820Z,77.93
2023-01-28T04:10:45.993Z,77.66
2023-01-28T04:13:26.985Z,77.78
2023-01-28T04:15:56.777Z,76.81
2023-01-28T04:18:27.531Z,76.97
2023-01-28T04:21:01.881Z,76.32
2023-01-28T04:23:32.428Z,76.20
2023-01-28T04:26:02.088Z,76.58
2023-01-28T04:28:31.833Z,77.14
2023-01-28T04:31:02.757Z,77.46
2023-01-28T04:33:54.271Z,78.30
2023-01-28T04:36:45.314Z,78.43
2023-01-28T04:39:38.360Z,78.26
2023-01-28T04:42:23.901Z,78.36
2023-01-28T04:45:09.126Z,77.06
2023-01-28T04:47:53.017Z,77.43
2023-01-28T04:50:48.670Z,76.96
2023-01-28T04:53:46.715Z,76.92
2023-01-28T04:56:32.009Z,77.52
2023-01-28T04:59:02.715Z,76.71
2023-01-28T05:01:33.492Z,76.04
2023-01-28T05:04:05.780Z,75.56
2023-01-28T05:06:38.812Z,76.49
2023-01-28T05:09:15.193Z,75.50
2023-01-28T05:11:45.013Z,72.84
2023-01-28T05:14:14.901Z,72.85
2023-01-28T05:16:48.667Z,73.35
2023-01-28T05:19:19.976Z,72.98
2023-01-28T05:21:49.987Z,73.46
2023-01-28T05:24:38.172Z,74.20
2023-01-28T05:27:07.843Z,74.24
2023-01-28T05:29:37.590Z,74.61
2023-01-28T05:32:07.956Z,74.04
2023-01-28T05:34:38.109Z,74.43
2023-01-28T05:37:13.242Z,74.08
2023-01-28T05:39:45.559Z,74.20
2023-01-28T05:42:15.725Z,74.74
2023-01-28T05:44:49.434Z,74.88
2023-01-28T05:47:25.936Z,75.48
2023-01-28T05:50:04.344Z,75.23
2023-01-28T05:52:40.143Z,75.30
2023-01-28T05:55:20.694Z,75.55
2023-01-28T05:57:51.040Z,75.92
2023-01-28T06:00:24.407Z,76.03
2023-01-28T06:02:54.772Z,76.30
2023-01-28T06:05:24.997Z,76.17
2023-01-28T06:07:55.578Z,73.79
2023-01-28T06:10:27.782Z,73.26
2023-01-28T06:12:58.227Z,71.92
2023-01-28T06:15:39.615Z,71.21
2023-01-28T06:18:27.417Z,71.61
2023-01-28T06:20:57.146Z,72.14
2023-01-28T06:23:26.891Z,71.95
2023-01-28T06:26:00.426Z,72.14
2023-01-28T06:28:30.240Z,72.73
2023-01-28T06:30:59.955Z,73.06
2023-01-28T06:33:29.681Z,72.77
2023-01-28T06:35:59.398Z,72.14
2023-01-28T06:38:29.018Z,69.57
2023-01-28T06:41:01.389Z,70.07
2023-01-28T06:43:31.065Z,71.12
2023-01-28T06:46:00.999Z,70.99
2023-01-28T06:48:31.354Z,70.23
2023-01-28T06:51:00.989Z,70.39
2023-01-28T06:53:30.675Z,70.44
2023-01-28T06:56:02.897Z,69.93
2023-01-28T06:58:32.592Z,71.03
2023-01-28T07:01:02.262Z,70.85
2023-01-28T07:03:32.995Z,71.06
2023-01-28T07:06:03.610Z,71.04
2023-01-28T07:08:37.002Z,70.92
2023-01-28T07:11:11.051Z,71.47
2023-01-28T07:13:41.698Z,70.94
2023-01-28T07:16:12.424Z,71.61
2023-01-28T07:18:42.393Z,71.67
2023-01-28T07:21:12.136Z,72.11
2023-01-28T07:23:42.177Z,72.25
2023-01-28T07:26:15.587Z,72.61
2023-01-28T07:28:45.246Z,72.71
2023-01-28T07:31:15.040Z,72.41
2023-01-28T07:33:45.171Z,72.18
2023-01-28T07:36:14.874Z,72.19
2023-01-28T07:38:44.727Z,72.68
2023-01-28T07:41:16.995Z,72.57
2023-01-28T07:43:46.681Z,73.92
2023-01-28T07:46:16.488Z,72.79
2023-01-28T07:48:46.212Z,73.03
2023-01-28T07:51:16.304Z,73.30
2023-01-28T07:53:45.995Z,72.87
2023-01-28T07:56:18.315Z,72.16
2023-01-28T07:58:48.044Z,71.13
2023-01-28T08:01:18.350Z,70.17
2023-01-28T08:03:48.117Z,69.85
2023-01-28T08:06:17.790Z,69.96
2023-01-28T08:08:47.481Z,70.57
2023-01-28T08:11:19.716Z,69.48
2023-01-28T08:13:49.963Z,69.69
2023-01-28T08:16:19.678Z,69.81
2023-01-28T08:18:49.412Z,69.39
2023-01-28T08:21:19.091Z,69.97
2023-01-28T08:23:48.816Z,70.28
2023-01-28T08:26:21.106Z,69.77
2023-01-28T08:28:51.736Z,69.35
2023-01-28T08:31:21.573Z,70.46
2023-01-28T08:33:51.321Z,70.22
2023-01-28T08:36:21.022Z,70.49
2023-01-28T08:38:54.775Z,70.12
2023-01-28T08:41:27.249Z,69.58
2023-01-28T08:43:56.931Z,69.51
2023-01-28T08:46:26.674Z,69.17
2023-01-28T08:48:56.419Z,69.23
2023-01-28T08:51:26.541Z,68.58
2023-01-28T08:53:56.246Z,68.67
2023-01-28T08:56:28.572Z,69.09
2023-01-28T08:58:58.250Z,68.78
2023-01-28T09:01:29.501Z,68.86
2023-01-28T09:03:59.349Z,69.99
2023-01-28T09:06:29.069Z,69.60
2023-01-28T09:09:00.009Z,69.40
2023-01-28T09:11:32.575Z,69.09
2023-01-28T09:14:02.483Z,69.35
2023-01-28T09:16:34.918Z,68.96
2023-01-28T09:19:04.592Z,69.03
2023-01-28T09:21:34.301Z,68.95
2023-01-28T09:24:04.028Z,68.69
2023-01-28T09:26:38.201Z,69.09
2023-01-28T09:29:07.937Z,69.58
2023-01-28T09:31:37.615Z,70.49
2023-01-28T09:34:07.282Z,70.06
2023-01-28T09:36:37.013Z,69.80
2023-01-28T09:39:08.369Z,70.45
2023-01-28T09:41:55.612Z,69.98
2023-01-28T09:44:40.355Z,69.73
2023-01-28T09:47:18.696Z,70.36
2023-01-28T09:49:52.499Z,70.13
2023-01-28T09:52:27.021Z,69.65
2023-01-28T09:55:02.631Z,69.24
2023-01-28T09:57:48.322Z,68.81
2023-01-28T10:00:20.379Z,70.09
2023-01-28T10:03:08.522Z,69.73
2023-01-28T10:05:48.294Z,69.28
2023-01-28T10:08:34.566Z,69.27
2023-01-28T10:11:12.222Z,69.60
2023-01-28T10:13:52.997Z,70.53
2023-01-28T10:16:31.030Z,69.32
2023-01-28T10:19:05.690Z,68.83
2023-01-28T10:21:42.155Z,68.57
2023-01-28T10:24:17.146Z,68.06
2023-01-28T10:26:47.843Z,68.86
2023-01-28T10:29:22.427Z,69.00
2023-01-28T10:31:56.429Z,68.36
2023-01-28T10:34:26.257Z,67.81
2023-01-28T10:36:57.090Z,68.00
2023-01-28T10:39:29.303Z,68.13
2023-01-28T10:41:59.670Z,69.00
2023-01-28T10:44:38.765Z,69.00
2023-01-28T10:47:16.236Z,69.02
2023-01-28T10:49:50.550Z,69.38
2023-01-28T10:52:20.481Z,68.47
2023-01-28T10:54:50.176Z,68.70
2023-01-28T10:57:21.891Z,68.18
2023-01-28T10:59:54.385Z,68.76
2023-01-28T11:02:32.379Z,69.27
2023-01-28T11:05:09.027Z,68.74
2023-01-28T11:07:38.725Z,68.47
2023-01-28T11:10:28.129Z,67.89
2023-01-28T11:12:58.939Z,68.94
2023-01-28T11:15:31.461Z,69.11
2023-01-28T11:18:04.187Z,69.40
2023-01-28T11:20:40.144Z,74.18
2023-01-28T11:23:09.885Z,68.39
2023-01-28T11:25:40.703Z,68.84
2023-01-28T11:28:21.279Z,67.38
2023-01-28T11:30:59.863Z,66.86
2023-01-28T11:33:36.425Z,68.34
2023-01-28T11:36:16.082Z,67.07
2023-01-28T11:38:57.096Z,68.31
2023-01-28T11:41:31.172Z,68.21
2023-01-28T11:44:02.143Z,68.29
2023-01-28T11:46:50.687Z,66.44
2023-01-28T11:49:30.623Z,68.43
2023-01-28T11:52:08.113Z,69.07
2023-01-28T11:54:50.511Z,68.24
2023-01-28T11:57:26.786Z,67.28
2023-01-28T12:00:06.749Z,67.03
2023-01-28T12:02:53.824Z,66.46
2023-01-28T12:05:47.926Z,68.31
2023-01-28T12:08:24.961Z,69.09
2023-01-28T12:11:11.939Z,68.94
2023-01-28T12:13:55.781Z,68.96
2023-01-28T12:16:56.994Z,69.25
2023-01-28T12:19:45.099Z,68.51
2023-01-28T12:22:26.904Z,69.23
2023-01-28T12:25:13.160Z,71.07
2023-01-28T12:27:51.289Z,70.88
2023-01-28T12:30:33.494Z,71.88
2023-01-28T12:33:17.700Z,72.35
2023-01-28T12:36:07.558Z,72.52
2023-01-28T12:38:46.421Z,72.58
2023-01-28T12:41:19.351Z,72.21
2023-01-28T12:43:54.755Z,69.92
2023-01-28T12:46:38.216Z,69.74
2023-01-28T12:49:14.951Z,69.73
2023-01-28T12:52:13.641Z,69.49
2023-01-28T12:54:51.423Z,70.48
2023-01-28T12:57:26.268Z,71.09
2023-01-28T13:00:01.292Z,70.94
2023-01-28T13:02:36.099Z,69.64
2023-01-28T13:05:11.465Z,68.19
2023-01-28T13:07:51.007Z,68.86
2023-01-28T13:10:27.159Z,69.05
2023-01-28T13:12:58.282Z,69.06
2023-01-28T13:15:28.645Z,69.37
2023-01-28T13:18:00.543Z,69.59
2023-01-28T13:20:39.972Z,68.62
2023-01-28T13:23:27.636Z,68.21
2023-01-28T13:25:58.767Z,68.78
2023-01-28T13:28:31.196Z,69.27
2023-01-28T13:31:06.736Z,68.53
2023-01-28T13:33:39.357Z,68.01
2023-01-28T13:36:24.124Z,68.35
2023-01-28T13:39:07.883Z,67.05
2023-01-28T13:41:41.821Z,69.31
2023-01-28T13:44:22.386Z,68.02
2023-01-28T13:46:52.327Z,66.96
2023-01-28T13:49:29.207Z,67.08
2023-01-28T13:52:04.471Z,64.94
2023-01-28T13:54:39.558Z,66.28
2023-01-28T13:57:56.779Z,65.82
2023-01-28T14:00:34.789Z,67.40
2023-01-28T14:03:34.317Z,67.21
2023-01-28T14:06:21.660Z,66.87
2023-01-28T14:09:04.583Z,67.10
2023-01-28T14:12:17.145Z,67.94
2023-01-28T14:15:07.505Z,68.18
2023-01-28T14:17:44.964Z,70.00
2023-01-28T14:20:22.377Z,68.41
2023-01-28T14:22:53.273Z,67.81
2023-01-28T14:25:31.990Z,67.30
2023-01-28T14:28:08.247Z,66.78
2023-01-28T14:30:46.550Z,67.29
2023-01-28T14:33:16.375Z,67.33
2023-01-28T14:35:48.963Z,67.57
2023-01-28T14:38:21.587Z,67.40
2023-01-28T14:40:53.954Z,68.53
2023-01-28T14:43:28.249Z,68.38
2023-01-28T14:46:11.975Z,69.17
2023-01-28T14:48:51.229Z,68.46
2023-01-28T14:51:39.656Z,68.71
2023-01-28T14:54:38.666Z,69.18
2023-01-28T14:57:23.962Z,68.91
2023-01-28T14:59:58.821Z,69.06
2023-01-28T15:02:30.444Z,69.58
2023-01-28T15:05:11.541Z,69.73
2023-01-28T15:07:46.075Z,70.18
2023-01-28T15:10:22.246Z,69.70
2023-01-28T15:12:56.750Z,70.03
2023-01-28T15:15:34.466Z,70.66
2023-01-28T15:18:08.443Z,70.43
2023-01-28T15:20:38.167Z,70.03
2023-01-28T15:23:10.362Z,69.69
2023-01-28T15:25:40.138Z,69.87
2023-01-28T15:28:16.514Z,69.94
2023-01-28T15:30:50.796Z,69.55
2023-01-28T15:33:23.437Z,69.79
2023-01-28T15:35:54.718Z,70.31
2023-01-28T15:38:25.427Z,70.33
2023-01-28T15:40:58.808Z,70.66
2023-01-28T15:43:31.708Z,70.99
2023-01-28T15:46:04.152Z,70.94
2023-01-28T15:48:36.624Z,70.94
2023-01-28T15:51:08.868Z,70.93
2023-01-28T15:53:47.633Z,71.00
2023-01-28T15:56:18.519Z,71.52
2023-01-28T15:58:48.268Z,71.37
2023-01-28T16:01:22.919Z,71.65
2023-01-28T16:04:04.895Z,71.62
2023-01-28T16:06:38.855Z,71.45
2023-01-28T16:09:17.003Z,72.08
2023-01-28T16:11:47.271Z,71.81
2023-01-28T16:14:26.355Z,71.80
2023-01-28T16:16:59.896Z,72.32
2023-01-28T16:19:36.573Z,75.12
2023-01-28T16:22:06.593Z,73.60
2023-01-28T16:24:38.837Z,72.94
2023-01-28T16:27:21.978Z,73.24
2023-01-28T16:29:51.872Z,73.33
2023-01-28T16:32:33.947Z,73.50
2023-01-28T16:35:04.679Z,73.94
2023-01-28T16:37:34.344Z,73.70
2023-01-28T16:40:05.433Z,74.73
2023-01-28T16:42:35.666Z,75.69
2023-01-28T16:45:05.804Z,76.85
2023-01-28T16:47:38.154Z,77.77
2023-01-28T16:50:08.482Z,77.81
2023-01-28T16:52:38.189Z,77.93
2023-01-28T16:55:08.644Z,78.47
2023-01-28T16:57:39.230Z,78.30
2023-01-28T17:00:10.774Z,77.94
2023-01-28T17:02:43.037Z,77.23
2023-01-28T17:05:15.307Z,77.73
2023-01-28T17:07:45.536Z,78.22
2023-01-28T17:10:15.779Z,77.74
2023-01-28T17:12:45.489Z,77.85
2023-01-28T17:15:15.663Z,77.33
2023-01-28T17:17:50.814Z,76.86
2023-01-28T17:20:20.721Z,77.35
2023-01-28T17:22:50.593Z,76.92
2023-01-28T17:25:20.525Z,77.01
2023-01-28T17:27:51.780Z,77.27
2023-01-28T17:30:23.017Z,77.08
2023-01-28T17:32:55.268Z,76.97
2023-01-28T17:35:24.915Z,76.70
2023-01-28T17:37:55.480Z,76.95
2023-01-28T17:40:25.961Z,77.19
2023-01-28T17:42:55.627Z,77.08
2023-01-28T17:45:25.495Z,77.97
2023-01-28T17:47:57.743Z,77.43
2023-01-28T17:50:27.478Z,77.58
2023-01-28T17:52:57.656Z,77.38
2023-01-28T17:55:28.290Z,77.50
2023-01-28T17:57:58.605Z,78.04
2023-01-28T18:00:28.607Z,78.11
2023-01-28T18:03:00.953Z,78.01
2023-01-28T18:05:30.617Z,77.46
2023-01-28T18:08:00.258Z,78.08
2023-01-28T18:10:29.997Z,78.20
2023-01-28T18:12:59.690Z,78.94
2023-01-28T18:15:30.252Z,79.56
2023-01-28T18:18:03.924Z,79.50
2023-01-28T18:20:35.168Z,79.59
2023-01-28T18:23:06.113Z,79.48
2023-01-28T18:25:36.078Z,79.16
2023-01-28T18:28:08.402Z,79.05
2023-01-28T18:30:38.160Z,79.47
2023-01-28T18:33:10.749Z,79.46
2023-01-28T18:35:44.257Z,79.57
2023-01-28T18:38:14.651Z,79.67
2023-01-28T18:40:46.149Z,79.63
2023-01-28T18:43:16.478Z,80.37
2023-01-28T18:45:49.472Z,79.79
2023-01-28T18:48:22.105Z,79.87
2023-01-28T18:50:55.241Z,79.94
2023-01-28T18:53:26.237Z,80.18
2023-01-28T18:55:56.614Z,79.95
2023-01-28T18:58:26.664Z,79.83
2023-01-28T19:00:56.489Z,79.88
2023-01-28T19:03:29.366Z,79.79
2023-01-28T19:05:59.001Z,79.66
2023-01-28T19:08:28.789Z,79.31
2023-01-28T19:10:58.846Z,79.17
2023-01-28T19:13:28.753Z,79.26
2023-01-28T19:15:58.499Z,79.13
2023-01-28T19:18:31.011Z,79.31
2023-01-28T19:21:04.576Z,79.53
2023-01-28T19:23:48.182Z,79.66
2023-01-28T19:26:21.367Z,79.80
2023-01-28T19:28:51.991Z,80.05
2023-01-28T19:31:23.656Z,80.54
2023-01-28T19:34:00.820Z,79.96
2023-01-28T19:36:34.386Z,80.38
2023-01-28T19:39:06.450Z,81.77
2023-01-28T19:41:36.565Z,82.59
2023-01-28T19:44:07.076Z,82.75
2023-01-28T19:46:38.267Z,82.20
2023-01-28T19:49:10.739Z,81.94
2023-01-28T19:51:40.482Z,82.28
2023-01-28T19:54:10.219Z,82.99
2023-01-28T19:56:39.895Z,83.76
2023-01-28T19:59:09.568Z,83.29
2023-01-28T20:01:39.222Z,83.51
2023-01-28T20:04:11.608Z,83.31
2023-01-28T20:06:41.312Z,83.54
2023-01-28T20:09:20.439Z,83.93
2023-01-28T20:11:50.136Z,84.09
2023-01-28T20:14:21.438Z,84.16
2023-01-28T20:16:51.127Z,85.11
2023-01-28T20:19:23.408Z,84.49
2023-01-28T20:21:54.306Z,83.90
2023-01-28T20:24:24.188Z,83.81
2023-01-28T20:26:53.884Z,84.48
2023-01-28T20:29:23.559Z,85.45
2023-01-28T20:32:14.804Z,85.73
2023-01-28T20:34:48.447Z,86.06
2023-01-28T20:37:18.480Z,86.10
2023-01-28T20:39:48.404Z,86.83
2023-01-28T20:42:18.110Z,86.52
2023-01-28T20:44:47.777Z,86.54
2023-01-28T20:47:17.426Z,85.72
2023-01-28T20:49:49.666Z,85.75
2023-01-28T20:52:19.319Z,86.17
2023-01-28T20:54:50.392Z,85.27
2023-01-28T20:57:20.053Z,85.24
2023-01-28T20:59:49.782Z,84.96
2023-01-28T21:02:19.526Z,84.72
2023-01-28T21:04:51.825Z,84.40
2023-01-28T21:07:21.485Z,84.90
2023-01-28T21:09:51.156Z,85.34
2023-01-28T21:12:20.918Z,85.10
2023-01-28T21:14:51.070Z,84.80
2023-01-28T21:17:20.761Z,85.02
2023-01-28T21:19:53.038Z,84.43
2023-01-28T21:22:22.814Z,85.29
2023-01-28T21:24:52.511Z,85.81
2023-01-28T21:27:22.155Z,86.25
2023-01-28T21:29:51.835Z,86.23
2023-01-28T21:32:25.566Z,86.38
2023-01-28T21:34:58.897Z,85.72
2023-01-28T21:37:28.693Z,85.95
2023-01-28T21:39:58.408Z,86.56
2023-01-28T21:42:28.771Z,87.63
2023-01-28T21:44:58.498Z,87.20
2023-01-28T21:47:28.157Z,86.66
2023-01-28T21:50:00.805Z,86.35
2023-01-28T21:52:30.457Z,85.73
2023-01-28T21:55:00.288Z,85.49
2023-01-28T21:57:29.974Z,85.10
2023-01-28T21:59:57.141Z,84.80
2023-01-28T22:02:26.804Z,84.85
2023-01-28T22:04:56.533Z,83.95
2023-01-28T22:07:28.787Z,84.77
2023-01-28T22:09:58.432Z,84.11
2023-01-28T22:12:28.317Z,84.46
2023-01-28T22:14:58.141Z,85.06
2023-01-28T22:17:27.778Z,84.64
2023-01-28T22:19:57.433Z,84.82
2023-01-28T22:22:29.705Z,84.50
2023-01-28T22:24:59.980Z,84.23
2023-01-28T22:27:29.734Z,83.35
2023-01-28T22:29:59.398Z,83.35
2023-01-28T22:32:29.180Z,83.55
2023-01-28T22:35:00.197Z,83.14
2023-01-28T22:37:32.430Z,83.45
2023-01-28T22:40:02.146Z,84.25
2023-01-28T22:42:31.838Z,84.52
2023-01-28T22:45:01.462Z,84.42
2023-01-28T22:47:31.110Z,84.91
2023-01-28T22:50:00.756Z,86.01
2023-01-28T22:52:33.010Z,85.76
2023-01-28T22:55:02.659Z,86.47
2023-01-28T22:57:32.374Z,86.12
2023-01-28T23:00:02.094Z,86.00
2023-01-28T23:02:31.886Z,86.69
2023-01-28T23:05:01.604Z,86.85
2023-01-28T23:07:34.089Z,87.18
2023-01-28T23:10:03.804Z,87.45
2023-01-28T23:12:33.562Z,88.08
2023-01-28T23:15:15.726Z,87.64
2023-01-28T23:17:57.997Z,87.46
2023-01-28T23:20:40.163Z,87.49
2023-01-28T23:23:30.871Z,87.06
2023-01-28T23:26:00.504Z,87.19
2023-01-28T23:28:30.272Z,86.86
2023-01-28T23:31:00.890Z,87.16
2023-01-28T23:33:30.677Z,87.44
2023-01-28T23:36:00.410Z,87.33
2023-01-28T23:38:32.686Z,87.94
2023-01-28T23:41:02.306Z,88.59
2023-01-28T23:43:32.217Z,88.99
2023-01-28T23:46:02.186Z,88.38
2023-01-28T23:48:31.851Z,88.64
2023-01-28T23:51:01.483Z,88.75
2023-01-28T23:53:33.769Z,88.27
2023-01-28T23:56:03.588Z,88.63
2023-01-28T23:58:42.958Z,88.73
